Time;durP1;ratioP1;P1;durP2;ratioP2;P2;SDS_P1;SDS_P2;PMS_P1;PMS_P2;Temp;Humidity;BMP_temperature;BMP_pressure;BME280_temperature;BME280_humidity;BME280_pressure;Samples;Min_cycle;Max_cycle;Signal;HPM_P1;HPM_P2
2023/05/24 00:01:15;;;;;;;9.03;6.13;;;;;;;15.45;75.90;94650.47;5073374;28;20804;-81
2023/05/24 00:03:45;;;;;;;6.50;5.20;;;;;;;15.41;75.66;94649.16;5073429;28;20993;-80
2023/05/24 00:06:12;;;;;;;7.53;6.23;;;;;;;15.30;76.37;94652.09;5073564;28;21129;-80
2023/05/24 00:08:39;;;;;;;6.00;5.40;;;;;;;15.32;76.71;94651.94;5073780;28;20504;-81
2023/05/24 00:11:06;;;;;;;5.50;5.00;;;;;;;15.37;76.67;94650.47;5073307;28;20499;-80
2023/05/24 00:13:32;;;;;;;8.87;5.57;;;;;;;15.36;77.16;94646.19;5073330;28;20450;-80
2023/05/24 00:16:00;;;;;;;8.40;6.20;;;;;;;15.41;76.30;94654.44;5073239;28;20446;-81
2023/05/24 00:18:30;;;;;;;5.97;5.33;;;;;;;15.37;76.13;94650.47;5054472;28;20498;-81
2023/05/24 00:20:57;;;;;;;7.27;5.63;;;;;;;15.31;76.30;94651.09;5073084;28;20938;-81
2023/05/24 00:23:24;;;;;;;7.20;6.10;;;;;;;15.27;76.87;94643.66;5054366;28;20464;-81
2023/05/24 00:25:51;;;;;;;11.70;6.27;;;;;;;15.27;76.97;94657.72;5037633;28;20450;-81
2023/05/24 00:28:18;;;;;;;7.00;6.40;;;;;;;15.27;77.09;94651.59;5072725;28;20539;-81
2023/05/24 00:30:44;;;;;;;10.50;6.30;;;;;;;15.27;76.71;94647.13;5073050;28;20452;-80
2023/05/24 00:33:12;;;;;;;5.77;5.17;;;;;;;15.28;77.35;94654.06;5073043;28;20446;-81
2023/05/24 00:35:39;;;;;;;6.50;5.60;;;;;;;15.30;76.74;94661.84;5072811;28;20454;-80
2023/05/24 00:38:06;;;;;;;7.67;6.87;;;;;;;15.08;77.68;94658.88;5073233;28;20476;-81
2023/05/24 00:40:33;;;;;;;8.83;6.73;;;;;;;15.01;78.62;94657.03;5072518;28;20793;-81
2023/05/24 00:42:59;;;;;;;7.70;6.30;;;;;;;15.03;80.14;94655.88;5072534;28;20440;-80
2023/05/24 00:45:26;;;;;;;8.80;6.60;;;;;;;15.05;80.09;94653.09;5072688;28;20449;-80
2023/05/24 00:47:53;;;;;;;9.50;7.20;;;;;;;15.11;80.40;94655.06;5072676;28;20441;-81
2023/05/24 00:50:22;;;;;;;8.23;6.97;;;;;;;15.15;80.38;94659.88;5072678;28;20489;-81
2023/05/24 00:52:51;;;;;;;7.13;6.43;;;;;;;15.19;79.76;94655.06;5037142;28;20450;-81
2023/05/24 00:55:18;;;;;;;6.87;6.20;;;;;;;15.17;79.20;94657.06;5072302;28;20448;-81
2023/05/24 00:57:45;;;;;;;8.60;5.67;;;;;;;15.14;79.44;94649.47;5072071;28;20446;-81
2023/05/24 01:00:15;;;;;;;6.27;5.70;;;;;;;15.15;79.16;94656.41;5071620;28;20452;-80
2023/05/24 01:02:41;;;;;;;7.80;6.70;;;;;;;15.15;79.75;94654.56;5072707;28;20446;-81
2023/05/24 01:05:12;;;;;;;11.67;6.80;;;;;;;15.11;79.35;94652.44;5072184;28;20540;-81
2023/05/24 01:07:51;;;;;;;7.57;5.57;;;;;;;15.09;79.20;94655.25;5072177;28;20974;-80
2023/05/24 01:10:30;;;;;;;9.00;6.53;;;;;;;15.10;79.13;94656.06;5071991;28;20489;-81
2023/05/24 01:13:04;;;;;;;7.43;5.90;;;;;;;15.07;79.58;94659.03;5072405;28;20458;-81
2023/05/24 01:15:41;;;;;;;10.20;5.40;;;;;;;15.04;79.40;94654.91;5072139;28;20441;-81
2023/05/24 01:18:20;;;;;;;8.00;5.90;;;;;;;15.04;79.45;94651.44;5072052;28;20448;-81
2023/05/24 01:20:57;;;;;;;6.83;5.83;;;;;;;15.05;78.92;94656.56;5072245;28;20447;-81
2023/05/24 01:23:39;;;;;;;6.00;5.50;;;;;;;15.04;79.36;94657.56;5071932;28;20499;-81
2023/05/24 01:26:21;;;;;;;6.40;5.80;;;;;;;15.02;79.39;94648.94;5072020;28;20456;-81
2023/05/24 01:28:50;;;;;;;9.30;6.57;;;;;;;15.01;78.95;94660.50;5071791;28;21058;-81
2023/05/24 01:31:18;;;;;;;10.53;6.90;;;;;;;14.98;78.22;94673.19;5072156;28;20939;-81
2023/05/24 01:33:45;;;;;;;7.90;6.07;;;;;;;14.96;78.83;94675.19;5072205;28;20505;-81
2023/05/24 01:36:12;;;;;;;7.80;6.33;;;;;;;14.93;79.83;94675.50;5071814;28;20567;-80
2023/05/24 01:38:39;;;;;;;8.00;5.53;;;;;;;14.94;79.89;94667.41;5071961;28;20503;-81
2023/05/24 01:41:15;;;;;;;7.90;6.37;;;;;;;14.97;79.63;94669.72;5071851;28;20453;-81
2023/05/24 01:43:52;;;;;;;8.53;7.63;;;;;;;14.98;80.20;94674.03;5072207;28;20451;-81
2023/05/24 01:46:25;;;;;;;9.27;6.57;;;;;;;15.05;80.07;94671.59;5072280;28;20449;-81
2023/05/24 01:49:01;;;;;;;7.93;6.90;;;;;;;14.97;80.38;94671.56;5071815;28;20489;-81
2023/05/24 01:51:44;;;;;;;12.43;6.80;;;;;;;14.99;80.77;94675.69;5071823;28;20451;-80
2023/05/24 01:54:13;;;;;;;7.10;6.40;;;;;;;15.02;80.66;94671.88;5072084;28;20438;-81
2023/05/24 01:56:43;;;;;;;7.50;6.80;;;;;;;15.05;80.94;94671.59;5071768;28;20452;-81
2023/05/24 01:59:12;;;;;;;7.43;6.50;;;;;;;15.04;81.07;94675.22;5072207;28;20842;-81
2023/05/24 02:01:40;;;;;;;8.77;6.90;;;;;;;15.04;81.12;94675.22;5071950;28;20445;-81
2023/05/24 02:04:07;;;;;;;9.23;6.43;;;;;;;14.95;80.46;94666.44;5053023;28;20444;-81
2023/05/24 02:06:34;;;;;;;6.60;6.00;;;;;;;14.95;81.07;94668.25;5072024;28;20813;-81
2023/05/24 02:09:01;;;;;;;7.67;6.80;;;;;;;14.90;81.01;94665.25;5071558;28;20488;-81
2023/05/24 02:11:28;;;;;;;8.53;7.00;;;;;;;14.87;81.44;94661.97;5075000;28;20451;-81
2023/05/24 02:13:55;;;;;;;7.80;6.70;;;;;;;14.86;81.65;94660.31;5075561;28;21018;-80
2023/05/24 02:16:25;;;;;;;8.03;6.20;;;;;;;14.85;81.83;94663.94;5075628;28;20437;-80
2023/05/24 02:18:52;;;;;;;8.40;6.40;;;;;;;14.88;81.18;94663.63;5075471;28;20813;-81
2023/05/24 02:21:19;;;;;;;12.20;6.17;;;;;;;14.84;80.93;94654.38;5075477;28;20997;-80
2023/05/24 02:23:45;;;;;;;8.00;6.90;;;;;;;14.79;80.89;94654.03;5075361;28;20502;-81
2023/05/24 02:26:13;;;;;;;8.83;6.83;;;;;;;14.68;81.09;94651.66;5075612;28;20543;-81
2023/05/24 02:28:40;;;;;;;7.73;6.27;;;;;;;14.67;80.98;94650.00;5075206;28;20466;-80
2023/05/24 02:31:07;;;;;;;7.80;6.50;;;;;;;14.62;81.14;94646.22;5075342;28;20852;-81
2023/05/24 02:33:36;;;;;;;6.47;5.87;;;;;;;14.54;81.64;94647.84;5075034;28;20969;-80
2023/05/24 02:36:03;;;;;;;8.37;7.00;;;;;;;14.51;81.58;94647.34;5075299;28;20455;-81
2023/05/24 02:38:30;;;;;;;9.80;6.83;;;;;;;14.48;82.21;94650.31;5075251;28;20445;-81
2023/05/24 02:40:57;;;;;;;8.70;6.90;;;;;;;14.42;82.67;94657.00;5075237;28;20459;-80
2023/05/24 02:43:24;;;;;;;8.40;7.00;;;;;;;14.41;82.48;94646.59;5075187;28;20497;-81
2023/05/24 02:45:51;;;;;;;7.90;7.20;;;;;;;14.39;82.69;94651.19;5039612;28;20448;-80
2023/05/24 02:48:17;;;;;;;10.23;7.60;;;;;;;14.38;82.52;94644.28;5075380;28;20449;-80
2023/05/24 02:50:45;;;;;;;8.10;7.30;;;;;;;14.31;82.79;94648.53;5074655;28;20488;-80
2023/05/24 02:53:12;;;;;;;7.73;7.00;;;;;;;14.34;83.20;94642.94;5074971;28;20502;-81
2023/05/24 02:55:39;;;;;;;9.90;7.23;;;;;;;14.35;83.02;94648.06;5074937;28;20449;-80
2023/05/24 02:58:07;;;;;;;7.43;6.73;;;;;;;14.33;82.66;94651.84;5074843;28;20502;-80
2023/05/24 03:00:33;;;;;;;8.70;7.57;;;;;;;14.31;83.28;94651.19;5074546;28;20445;-81
2023/05/24 03:03:01;;;;;;;8.20;6.97;;;;;;;14.29;83.44;94646.06;5074979;28;20445;-81
2023/05/24 03:05:28;;;;;;;8.40;7.07;;;;;;;14.32;83.52;94645.75;5074837;28;20444;-81
2023/05/24 03:07:57;;;;;;;9.73;7.20;;;;;;;14.37;84.09;94656.66;5074962;28;20443;-80
2023/05/24 03:10:23;;;;;;;7.83;7.03;;;;;;;14.42;83.80;94657.00;5074804;28;20494;-80
2023/05/24 03:12:50;;;;;;;10.47;7.60;;;;;;;14.49;83.68;94652.78;5074533;28;20441;-81
2023/05/24 03:15:17;;;;;;;10.40;6.93;;;;;;;14.55;82.63;94656.59;5074464;28;21721;-81
2023/05/24 03:17:44;;;;;;;8.77;7.10;;;;;;;14.70;82.56;94668.19;5055646;28;20511;-81
2023/05/24 03:20:11;;;;;;;9.47;6.80;;;;;;;14.87;80.65;94661.97;5074706;28;20444;-80
2023/05/24 03:22:38;;;;;;;8.13;7.20;;;;;;;15.09;80.59;94672.91;5073608;28;20465;-81
2023/05/24 03:25:07;;;;;;;9.83;6.67;;;;;;;15.36;79.58;94669.16;5074520;28;20471;-80
2023/05/24 03:27:34;;;;;;;11.37;6.47;;;;;;;15.63;78.19;94665.38;5055484;28;20549;-81
2023/05/24 03:30:01;;;;;;;8.67;7.50;;;;;;;15.86;76.12;94679.56;5074478;28;20484;-80
2023/05/24 03:32:28;;;;;;;13.60;7.90;;;;;;;16.11;75.32;94686.47;5074245;28;20445;-80
2023/05/24 03:34:56;;;;;;;8.67;7.87;;;;;;;16.09;74.39;94685.81;5074232;28;20443;-81
2023/05/24 03:37:23;;;;;;;12.37;7.03;;;;;;;15.95;74.82;94688.31;5073878;28;20482;-80
2023/05/24 03:39:49;;;;;;;7.90;7.10;;;;;;;15.85;76.21;94691.13;5074754;28;20497;-81
2023/05/24 03:42:17;;;;;;;7.27;6.57;;;;;;;15.86;76.55;94689.31;5074428;28;20435;-81
2023/05/24 03:44:44;;;;;;;9.27;7.70;;;;;;;15.84;76.20;94696.59;5074181;28;20441;-81
2023/05/24 03:47:11;;;;;;;7.87;7.17;;;;;;;16.00;76.83;94694.75;5074294;28;20716;-81
2023/05/24 03:49:38;;;;;;;15.00;7.70;;;;;;;16.38;75.05;94687.06;5074118;28;20538;-81
2023/05/24 03:52:05;;;;;;;8.47;7.57;;;;;;;16.78;74.03;94690.59;5073922;28;20498;-81
2023/05/24 03:54:32;;;;;;;7.63;6.90;;;;;;;17.21;71.37;94684.72;5073714;28;20436;-81
2023/05/24 03:56:58;;;;;;;7.47;6.73;;;;;;;17.63;69.09;94686.88;5073997;28;20505;-81
2023/05/24 03:59:26;;;;;;;7.20;5.70;;;;;;;18.10;67.20;94688.50;5073485;28;20450;-81
2023/05/24 04:01:53;;;;;;;8.33;6.83;;;;;;;18.46;64.95;94695.75;5073963;28;20865;-81
2023/05/24 04:04:20;;;;;;;11.90;6.30;;;;;;;18.72;63.64;94693.50;5073485;28;20439;-81
2023/05/24 04:06:48;;;;;;;6.67;5.93;;;;;;;19.07;63.08;94697.22;5074086;28;20441;-82
2023/05/24 04:09:15;;;;;;;7.53;6.73;;;;;;;19.37;61.33;94691.81;5073445;28;20920;-81
2023/05/24 04:11:42;;;;;;;7.03;6.23;;;;;;;19.63;60.05;94692.09;5073734;28;20451;-81
2023/05/24 04:14:09;;;;;;;9.40;6.60;;;;;;;19.82;59.12;94695.97;5073757;28;20923;-81
2023/05/24 04:16:38;;;;;;;7.80;6.10;;;;;;;20.03;58.75;94697.81;5038400;28;20531;-81
2023/05/24 04:19:05;;;;;;;6.63;6.00;;;;;;;20.23;58.35;94693.44;5073630;28;20527;-81
2023/05/24 04:21:32;;;;;;;7.73;6.37;;;;;;;20.39;56.35;94692.31;5037561;28;20852;-81
2023/05/24 04:24:00;;;;;;;7.97;7.13;;;;;;;20.61;56.82;94699.28;5054332;28;20437;-81
2023/05/24 04:26:27;;;;;;;10.60;6.83;;;;;;;20.78;55.70;94697.09;5073196;28;20442;-80
2023/05/24 04:28:53;;;;;;;6.87;6.17;;;;;;;20.91;55.76;94699.84;5073160;28;20529;-81
2023/05/24 04:31:21;;;;;;;10.07;7.27;;;;;;;21.12;54.17;94709.59;5071975;28;20495;-81
2023/05/24 04:33:49;;;;;;;7.20;6.17;;;;;;;21.35;53.71;94698.59;5036756;28;20856;-81
2023/05/24 04:36:17;;;;;;;8.33;6.60;;;;;;;21.58;53.39;94704.41;5072249;28;20557;-81
2023/05/24 04:38:44;;;;;;;6.70;5.80;;;;;;;21.80;53.29;94705.06;5072255;28;20479;-81
2023/05/24 04:41:12;;;;;;;8.23;7.17;;;;;;;21.64;54.87;94708.94;5072540;28;20943;-81
2023/05/24 04:43:39;;;;;;;10.43;8.53;;;;;;;21.34;55.48;94712.97;5072792;28;20524;-81
2023/05/24 04:46:06;;;;;;;8.30;7.37;;;;;;;20.88;57.16;94710.91;5072578;28;20815;-81
2023/05/24 04:48:33;;;;;;;17.40;7.77;;;;;;;20.98;57.88;94722.03;5072797;28;20443;-81
2023/05/24 04:51:01;;;;;;;12.47;7.63;;;;;;;21.01;57.77;94728.81;5072573;28;20493;-81
2023/05/24 04:53:28;;;;;;;8.83;7.23;;;;;;;21.33;56.96;94730.81;5072447;28;21012;-81
2023/05/24 04:55:55;;;;;;;9.87;7.53;;;;;;;21.33;56.42;94732.66;5072383;28;20447;-80
2023/05/24 04:58:21;;;;;;;16.73;8.00;;;;;;;20.50;58.59;94731.78;5072243;28;20488;-81
2023/05/24 05:00:48;;;;;;;8.80;8.00;;;;;;;19.73;61.48;94723.75;5072155;28;20454;-80
2023/05/24 05:03:15;;;;;;;9.50;8.63;;;;;;;19.12;64.21;94721.44;5072560;28;20448;-81
2023/05/24 05:05:42;;;;;;;15.13;7.93;;;;;;;19.10;64.78;94728.78;5072319;28;21121;-81
2023/05/24 05:08:10;;;;;;;11.03;8.40;;;;;;;19.31;64.57;94730.63;5072131;28;20936;-81
2023/05/24 05:10:36;;;;;;;20.13;8.90;;;;;;;19.29;65.47;94727.34;5072091;28;20847;-81
2023/05/24 05:13:03;;;;;;;17.80;8.40;;;;;;;19.42;65.02;94721.38;5072349;28;20547;-81
2023/05/24 05:15:31;;;;;;;10.00;7.93;;;;;;;19.82;64.47;94727.09;5072255;28;21005;-81
2023/05/24 05:17:58;;;;;;;9.83;8.10;;;;;;;20.32;62.39;94726.09;5071924;28;20528;-82
2023/05/24 05:20:25;;;;;;;13.00;7.63;;;;;;;20.83;60.92;94732.03;5071812;28;20864;-81
2023/05/24 05:22:51;;;;;;;9.03;7.60;;;;;;;21.39;58.29;94739.03;5072242;28;20514;-80
2023/05/24 05:25:20;;;;;;;7.97;6.87;;;;;;;21.70;57.24;94734.03;5071867;28;20443;-81
2023/05/24 05:27:47;;;;;;;9.10;7.43;;;;;;;22.06;55.99;94733.69;5072243;28;20460;-81
2023/05/24 05:30:14;;;;;;;8.53;7.30;;;;;;;22.37;54.85;94730.41;5071668;28;20560;-82
2023/05/24 05:32:40;;;;;;;11.47;6.80;;;;;;;22.80;54.27;94728.09;5071806;28;20456;-81
2023/05/24 05:35:08;;;;;;;9.23;6.50;;;;;;;23.14;53.39;94732.38;5071859;28;20443;-81
2023/05/24 05:37:35;;;;;;;8.90;6.70;;;;;;;23.58;51.10;94721.91;5036482;28;20477;-81
2023/05/24 05:40:03;;;;;;;12.03;9.63;;;;;;;24.01;49.89;94722.06;5071865;28;20504;-81
2023/05/24 05:42:31;;;;;;;8.20;7.40;;;;;;;24.41;48.92;94730.66;5071747;28;20440;-81
2023/05/24 05:44:58;;;;;;;6.43;5.90;;;;;;;24.73;46.91;94726.00;5071402;28;20447;-81
2023/05/24 05:47:24;;;;;;;6.97;6.37;;;;;;;25.04;45.98;94732.34;5071564;28;20946;-81
2023/05/24 05:49:51;;;;;;;7.20;6.50;;;;;;;25.31;45.17;94731.81;5071815;28;20923;-81
2023/05/24 05:52:18;;;;;;;7.07;6.40;;;;;;;25.56;44.38;94725.53;5071579;28;20448;-82
2023/05/24 05:54:45;;;;;;;7.30;6.27;;;;;;;25.83;42.63;94717.97;5071673;28;20502;-82
2023/05/24 05:57:11;;;;;;;9.03;6.33;;;;;;;25.94;41.87;94722.53;5071441;28;20452;-81
2023/05/24 05:59:40;;;;;;;8.50;7.60;;;;;;;26.04;42.06;94719.31;5071675;28;20498;-82
2023/05/24 06:02:06;;;;;;;9.50;7.70;;;;;;;26.23;41.56;94728.94;5036162;28;20480;-82
2023/05/24 06:04:33;;;;;;;7.57;6.77;;;;;;;26.45;41.12;94730.06;5052698;28;20462;-82
2023/05/24 06:07:00;;;;;;;5.20;4.70;;;;;;;26.54;39.16;94731.34;5052720;28;20519;-81
2023/05/24 06:09:27;;;;;;;8.20;6.10;;;;;;;26.57;39.07;94731.94;5071899;28;20486;-81
2023/05/24 06:11:54;;;;;;;6.27;5.67;;;;;;;26.70;39.86;94737.13;5071495;28;20538;-81
2023/05/24 06:14:21;;;;;;;9.53;5.70;;;;;;;26.83;41.01;94735.00;5071919;28;20977;-81
2023/05/24 06:16:51;;;;;;;7.77;5.73;;;;;;;26.71;44.22;94738.75;5071796;28;20532;-82
2023/05/24 06:19:18;;;;;;;7.73;6.97;;;;;;;26.49;44.52;94736.63;5071371;28;20441;-82
2023/05/24 06:21:46;;;;;;;7.57;6.70;;;;;;;25.82;45.02;94735.97;5071233;28;20838;-81
2023/05/24 06:24:14;;;;;;;12.70;7.37;;;;;;;25.46;46.13;94730.63;5071379;28;20440;-82
2023/05/24 06:26:41;;;;;;;11.83;7.10;;;;;;;25.25;46.77;94735.41;5071145;28;20855;-81
2023/05/24 06:29:08;;;;;;;15.73;6.90;;;;;;;25.06;48.04;94731.06;5071208;28;20885;-81
2023/05/24 06:31:35;;;;;;;9.20;6.87;;;;;;;24.82;48.66;94738.09;5071657;28;20484;-81
2023/05/24 06:34:03;;;;;;;10.10;7.60;;;;;;;24.32;49.05;94740.00;5072383;28;20859;-82
2023/05/24 06:36:32;;;;;;;8.53;7.10;;;;;;;23.68;51.17;94733.78;5071599;28;20481;-83
2023/05/24 06:39:00;;;;;;;13.60;7.00;;;;;;;23.85;52.71;94734.09;5071206;28;20443;-82
2023/05/24 06:41:27;;;;;;;10.73;7.13;;;;;;;24.26;50.78;94730.09;5071357;28;20445;-82
2023/05/24 06:43:53;;;;;;;7.37;6.67;;;;;;;23.73;51.45;94733.97;5071604;28;20436;-82
2023/05/24 06:46:20;;;;;;;11.97;7.77;;;;;;;23.72;52.13;94728.84;5071342;28;20452;-82
2023/05/24 06:48:47;;;;;;;8.33;6.93;;;;;;;24.07;52.28;94723.88;5071217;28;20446;-82
2023/05/24 06:51:16;;;;;;;12.77;6.57;;;;;;;24.44;50.83;94732.06;5071566;28;20483;-82
2023/05/24 06:53:42;;;;;;;8.37;7.00;;;;;;;24.84;50.50;94717.22;5071169;28;20444;-82
2023/05/24 06:56:09;;;;;;;9.70;6.70;;;;;;;24.93;49.11;94723.16;5070901;28;20448;-83
2023/05/24 06:58:36;;;;;;;9.80;8.20;;;;;;;25.14;49.74;94721.91;5074384;28;20441;-83
2023/05/24 07:01:04;;;;;;;10.23;7.90;;;;;;;25.53;48.76;94721.44;5074789;28;20535;-83
2023/05/24 07:03:30;;;;;;;9.17;7.40;;;;;;;25.76;47.60;94723.44;5039431;28;20441;-80
2023/05/24 07:05:57;;;;;;;13.90;7.47;;;;;;;25.57;47.66;94722.63;5074573;28;20532;-80
2023/05/24 07:08:26;;;;;;;7.93;6.40;;;;;;;25.77;47.27;94716.19;5074312;28;20993;-82
2023/05/24 07:10:53;;;;;;;17.87;7.03;;;;;;;25.94;47.51;94726.06;5074751;28;20549;-82
2023/05/24 07:13:20;;;;;;;7.57;6.90;;;;;;;25.28;47.73;94723.41;5055986;28;20436;-82
2023/05/24 07:15:47;;;;;;;11.40;6.90;;;;;;;25.32;49.05;94714.66;5074625;28;20444;-82
2023/05/24 07:18:14;;;;;;;9.83;6.13;;;;;;;25.65;48.39;94721.47;5074528;28;20444;-83
2023/05/24 07:20:41;;;;;;;10.10;8.20;;;;;;;25.90;47.40;94724.88;5074912;28;20536;-82
2023/05/24 07:23:08;;;;;;;8.63;6.27;;;;;;;26.19;47.59;94725.06;5074219;28;20451;-82
2023/05/24 07:25:36;;;;;;;11.70;8.10;;;;;;;26.18;46.26;94731.50;5074407;28;20456;-79
2023/05/24 07:28:03;;;;;;;14.57;8.20;;;;;;;26.14;46.49;94723.09;5074458;28;20448;-82
2023/05/24 07:30:30;;;;;;;10.20;9.20;;;;;;;26.15;46.34;94735.47;5074457;28;20484;-82
2023/05/24 07:32:56;;;;;;;12.80;8.27;;;;;;;25.94;46.92;94727.94;5074035;28;20939;-81
2023/05/24 07:35:23;;;;;;;8.67;7.10;;;;;;;26.09;46.16;94733.72;5073910;28;20441;-81
2023/05/24 07:37:50;;;;;;;19.70;7.27;;;;;;;26.18;46.17;94731.50;5055073;28;20986;-81
2023/05/24 07:40:17;;;;;;;8.67;7.00;;;;;;;26.31;45.80;94733.16;5073729;28;20962;-82
2023/05/24 07:42:46;;;;;;;14.20;8.23;;;;;;;26.25;46.21;94724.16;5073831;28;20502;-82
2023/05/24 07:45:13;;;;;;;12.90;8.37;;;;;;;26.19;46.06;94725.06;5074043;28;20452;-82
2023/05/24 07:47:40;;;;;;;14.57;7.70;;;;;;;26.11;45.34;94726.22;5073808;28;20449;-83
2023/05/24 07:50:07;;;;;;;15.20;8.67;;;;;;;25.84;45.60;94731.19;5073766;28;20531;-82
2023/05/24 07:52:34;;;;;;;12.70;8.00;;;;;;;26.02;45.94;94724.09;5074205;28;20473;-82
2023/05/24 07:55:01;;;;;;;14.93;9.30;;;;;;;25.99;45.77;94722.69;5073787;28;20939;-81
2023/05/24 07:57:28;;;;;;;10.07;8.63;;;;;;;26.16;46.29;94718.28;5073656;28;20452;-82
2023/05/24 07:59:56;;;;;;;14.47;8.83;;;;;;;26.26;46.90;94709.63;5073350;28;20445;-81
2023/05/24 08:02:23;;;;;;;13.83;9.00;;;;;;;26.18;47.54;94718.06;5073404;28;20522;-82
2023/05/24 08:04:49;;;;;;;11.17;8.47;;;;;;;26.19;45.92;94717.00;5038179;28;20951;-82
2023/05/24 08:07:16;;;;;;;10.23;8.17;;;;;;;26.32;45.42;94719.50;5054548;28;20437;-82
2023/05/24 08:09:43;;;;;;;16.03;9.23;;;;;;;26.44;44.92;94723.06;5073616;28;20452;-82
2023/05/24 08:12:10;;;;;;;12.90;8.40;;;;;;;26.62;44.59;94718.63;5073356;28;20569;-82
2023/05/24 08:14:36;;;;;;;16.70;9.23;;;;;;;26.64;46.73;94722.72;5038002;28;20448;-82
2023/05/24 08:17:04;;;;;;;16.30;8.03;;;;;;;26.61;45.89;94717.00;5073402;28;20509;-82
2023/05/24 08:19:34;;;;;;;16.03;7.80;;;;;;;26.64;44.22;94721.91;5073550;28;20448;-82
2023/05/24 08:22:03;;;;;;;9.00;7.17;;;;;;;26.42;45.63;94718.94;5073275;28;20455;-82
2023/05/24 08:24:30;;;;;;;10.70;7.10;;;;;;;26.55;43.71;94716.84;5073473;28;20487;-81
2023/05/24 08:26:57;;;;;;;15.17;8.57;;;;;;;26.33;44.34;94712.25;5038186;28;20540;-82
2023/05/24 08:29:24;;;;;;;19.83;8.53;;;;;;;26.42;44.57;94714.38;5073495;28;20429;-82
2023/05/24 08:31:51;;;;;;;13.20;7.20;;;;;;;26.19;40.86;94715.13;5073150;28;20469;-82
2023/05/24 08:34:19;;;;;;;10.50;5.93;;;;;;;26.32;39.67;94710.63;5073347;28;20480;-82
2023/05/24 08:36:46;;;;;;;8.80;5.93;;;;;;;26.47;39.25;94706.44;5072701;28;21044;-81
2023/05/24 08:39:13;;;;;;;7.30;6.47;;;;;;;26.62;39.88;94705.16;5073145;28;20798;-82
2023/05/24 08:41:40;;;;;;;12.10;6.57;;;;;;;26.74;40.96;94705.97;5072904;28;20445;-82
2023/05/24 08:44:07;;;;;;;9.87;6.30;;;;;;;26.80;40.90;94705.84;5072809;28;20878;-81
2023/05/24 08:46:35;;;;;;;10.43;6.60;;;;;;;26.59;41.63;94709.13;5073082;28;20433;-81
2023/05/24 08:49:03;;;;;;;14.53;6.53;;;;;;;26.76;41.75;94704.69;5053717;28;20611;-82
2023/05/24 08:51:31;;;;;;;11.70;6.10;;;;;;;26.74;40.73;94705.97;5072741;28;20572;-82
2023/05/24 08:54:00;;;;;;;6.20;5.60;;;;;;;26.83;38.03;94704.56;5072683;28;20863;-82
2023/05/24 08:56:28;;;;;;;11.57;5.30;;;;;;;26.68;36.65;94702.34;5072479;28;20445;-81
2023/05/24 08:58:55;;;;;;;4.93;4.50;;;;;;;26.30;38.33;94705.44;5072582;28;20814;-82
2023/05/24 09:01:24;;;;;;;5.13;4.63;;;;;;;25.89;39.79;94709.78;5072376;28;20866;-82
2023/05/24 09:03:51;;;;;;;5.83;5.07;;;;;;;25.57;40.21;94711.88;5072404;28;20445;-82
2023/05/24 09:06:19;;;;;;;7.03;6.00;;;;;;;25.62;42.29;94708.50;5072727;28;20445;-82
2023/05/24 09:08:51;;;;;;;10.97;6.03;;;;;;;25.80;40.66;94710.34;5072392;28;20498;-82
2023/05/24 09:11:18;;;;;;;9.20;5.10;;;;;;;25.97;40.24;94699.75;5072291;28;20480;-82
2023/05/24 09:13:45;;;;;;;8.50;6.03;;;;;;;26.24;40.42;94706.38;5072218;28;20876;-83
2023/05/24 09:16:12;;;;;;;7.07;5.00;;;;;;;26.42;40.29;94703.63;5072301;28;20441;-82
2023/05/24 09:18:41;;;;;;;8.07;5.60;;;;;;;26.48;37.41;94705.38;5072582;28;20505;-81
2023/05/24 09:21:08;;;;;;;7.10;4.20;;;;;;;26.48;37.39;94702.69;5071447;28;20535;-82
2023/05/24 09:23:36;;;;;;;4.23;3.83;;;;;;;26.01;36.74;94703.63;5071870;28;20499;-82
2023/05/24 09:26:09;;;;;;;6.53;3.90;;;;;;;25.92;37.00;94708.50;5072318;28;20492;-82
2023/05/24 09:28:36;;;;;;;6.53;4.40;;;;;;;26.02;37.29;94699.88;5072209;28;20527;-82
2023/05/24 09:31:04;;;;;;;5.37;4.07;;;;;;;25.72;36.38;94700.72;5071658;28;20528;-82
2023/05/24 09:33:31;;;;;;;5.40;4.67;;;;;;;25.51;36.66;94704.72;5072073;28;20473;-81
2023/05/24 09:35:59;;;;;;;7.73;4.57;;;;;;;25.59;37.14;94703.56;5071734;28;20452;-82
2023/05/24 09:38:28;;;;;;;4.57;3.50;;;;;;;25.81;36.60;94699.38;5071965;28;20453;-82
2023/05/24 09:41:01;;;;;;;5.80;4.33;;;;;;;25.99;36.86;94689.59;5071751;28;20806;-83
2023/05/24 09:43:30;;;;;;;4.30;3.90;;;;;;;26.12;37.29;94692.91;5071682;28;20445;-82
2023/05/24 09:45:58;;;;;;;8.50;4.23;;;;;;;25.73;34.76;94696.97;5071877;28;20502;-82
2023/05/24 09:48:26;;;;;;;4.33;3.87;;;;;;;25.30;35.34;94689.88;5071708;28;20452;-82
2023/05/24 09:51:08;;;;;;;4.37;3.87;;;;;;;25.39;37.30;94687.69;5071668;28;20535;-82
2023/05/24 09:53:36;;;;;;;4.17;3.83;;;;;;;25.57;37.30;94693.06;5071925;28;20501;-82
2023/05/24 09:56:05;;;;;;;3.57;3.33;;;;;;;25.64;36.53;94684.91;5071583;28;20681;-82
2023/05/24 09:58:34;;;;;;;4.90;4.50;;;;;;;25.71;38.17;94685.66;5071730;28;20436;-82
2023/05/24 10:01:06;;;;;;;4.67;4.03;;;;;;;25.89;38.54;94685.59;5036269;28;20776;-82
2023/05/24 10:03:33;;;;;;;4.87;4.47;;;;;;;25.87;38.31;94685.00;5071431;28;20810;-82
2023/05/24 10:06:00;;;;;;;8.07;4.83;;;;;;;25.81;37.82;94688.63;5071671;28;20468;-82
2023/05/24 10:08:27;;;;;;;6.30;4.80;;;;;;;25.86;37.09;94682.56;5071728;28;20517;-82
2023/05/24 10:10:56;;;;;;;4.53;3.73;;;;;;;25.83;35.90;94674.94;5071581;28;20448;-82
2023/05/24 10:13:23;;;;;;;5.77;5.27;;;;;;;25.81;37.03;94674.34;5071376;28;20579;-82
2023/05/24 10:15:51;;;;;;;3.80;3.43;;;;;;;25.43;35.01;94677.31;5071542;28;21001;-82
2023/05/24 10:18:18;;;;;;;4.23;3.90;;;;;;;25.44;37.23;94673.59;5071253;28;20958;-82
2023/05/24 10:20:45;;;;;;;9.63;3.73;;;;;;;25.53;38.16;94677.63;5071786;28;20456;-82
2023/05/24 10:23:19;;;;;;;4.37;3.77;;;;;;;25.58;37.56;94669.69;5071439;28;20468;-82
2023/05/24 10:25:52;;;;;;;5.37;3.80;;;;;;;25.49;36.43;94673.75;5037278;28;20482;-82
2023/05/24 10:28:22;;;;;;;5.40;4.30;;;;;;;25.62;36.63;94668.19;5071274;28;20841;-82
2023/05/24 10:31:00;;;;;;;7.47;3.93;;;;;;;25.78;36.03;94672.94;5071893;28;20445;-82
2023/05/24 10:33:27;;;;;;;9.33;4.30;;;;;;;25.87;37.59;94666.19;5075325;28;20491;-82
2023/05/24 10:35:55;;;;;;;4.67;4.10;;;;;;;25.92;37.22;94660.94;5074693;28;20444;-82
2023/05/24 10:38:24;;;;;;;7.17;4.20;;;;;;;25.92;36.23;94660.94;5074896;28;20455;-83
2023/05/24 10:40:51;;;;;;;4.77;4.37;;;;;;;26.01;36.18;94656.03;5075194;28;20448;-81
2023/05/24 10:43:18;;;;;;;5.00;4.50;;;;;;;26.13;35.71;94650.69;5074973;28;20970;-82
2023/05/24 10:45:49;;;;;;;3.77;3.47;;;;;;;26.11;34.96;94642.03;5074973;28;20502;-82
2023/05/24 10:48:37;;;;;;;4.40;4.10;;;;;;;26.16;35.62;94651.03;5075307;28;20794;-82
2023/05/24 10:51:33;;;;;;;6.20;4.80;;;;;;;26.21;34.96;94647.66;5074893;28;20448;-82
2023/05/24 10:54:17;;;;;;;4.73;4.33;;;;;;;26.30;34.77;94635.47;5074856;28;20456;-82
2023/05/24 10:56:46;;;;;;;6.77;5.00;;;;;;;26.25;36.47;94640.75;5039843;28;21034;-82
2023/05/24 10:59:30;;;;;;;6.30;4.20;;;;;;;25.99;36.24;94649.25;5074797;28;20440;-81
2023/05/24 11:01:59;;;;;;;4.23;3.83;;;;;;;25.88;36.88;94640.94;5074593;28;20958;-82
2023/05/24 11:04:31;;;;;;;5.07;3.57;;;;;;;25.88;35.99;94637.44;5074855;28;20451;-82
2023/05/24 11:07:02;;;;;;;4.33;3.90;;;;;;;25.75;37.49;94627.72;5074908;28;20455;-82
2023/05/24 11:09:29;;;;;;;4.73;4.23;;;;;;;25.72;35.17;94630.00;5074510;28;20524;-83
2023/05/24 11:11:57;;;;;;;6.60;4.10;;;;;;;25.70;36.69;94641.00;5074522;28;20488;-81
2023/05/24 11:14:29;;;;;;;4.30;3.90;;;;;;;25.46;34.56;94633.91;5074579;28;20791;-82
2023/05/24 11:16:56;;;;;;;4.23;3.17;;;;;;;25.51;35.77;94636.72;5074470;28;20441;-83
2023/05/24 11:19:24;;;;;;;4.37;3.97;;;;;;;25.53;34.14;94640.81;5074556;28;20536;-81
2023/05/24 11:21:53;;;;;;;4.20;3.90;;;;;;;25.48;34.35;94632.63;5074613;28;20451;-82
2023/05/24 11:24:22;;;;;;;5.87;3.80;;;;;;;25.49;34.98;94628.06;5074375;28;20444;-82
2023/05/24 11:26:50;;;;;;;4.03;3.57;;;;;;;25.59;35.18;94625.63;5074294;28;20940;-81
2023/05/24 11:29:19;;;;;;;13.70;5.43;;;;;;;25.45;34.17;94635.78;5074453;28;20494;-82
2023/05/24 11:31:51;;;;;;;4.90;3.70;;;;;;;25.57;35.16;94622.38;5039584;28;20516;-81
2023/05/24 11:34:18;;;;;;;4.33;3.90;;;;;;;25.79;35.48;94626.19;5074129;28;20480;-82
2023/05/24 11:36:45;;;;;;;5.80;4.10;;;;;;;25.89;35.00;94620.25;5073945;28;20480;-81